createdAt,value
2022-08-17T00:00:34.472Z,60.59
2022-08-17T00:05:48.024Z,66.62
2022-08-17T00:10:52.947Z,58.10
2022-08-17T00:15:59.941Z,57.47
2022-08-17T00:21:05.528Z,58.81
2022-08-17T00:26:14.249Z,59.90
2022-08-17T00:31:17.587Z,66.59
2022-08-17T00:36:21.538Z,60.86
2022-08-17T00:41:27.163Z,55.17
2022-08-17T00:46:34.949Z,56.40
2022-08-17T00:51:44.261Z,57.96
2022-08-17T00:56:54.081Z,59.68
2022-08-17T01:01:58.066Z,66.35
2022-08-17T01:07:03.281Z,60.37
2022-08-17T01:12:09.190Z,54.91
2022-08-17T01:17:12.442Z,56.14
2022-08-17T01:22:16.651Z,58.02
2022-08-17T01:27:21.492Z,59.66
2022-08-17T01:32:26.381Z,66.65
2022-08-17T01:37:37.858Z,60.98
2022-08-17T01:42:48.749Z,55.09
2022-08-17T01:47:53.016Z,55.66
2022-08-17T01:53:00.033Z,57.88
2022-08-17T01:58:03.167Z,59.47
2022-08-17T02:03:07.914Z,66.07
2022-08-17T02:08:19.863Z,60.62
2022-08-17T02:13:23.412Z,55.13
2022-08-17T02:18:27.391Z,56.79
2022-08-17T02:23:34.387Z,58.88
2022-08-17T02:28:37.207Z,60.29
2022-08-17T02:33:42.935Z,66.60
2022-08-17T02:38:46.491Z,61.09
2022-08-17T02:43:49.398Z,55.31
2022-08-17T02:48:52.701Z,56.11
2022-08-17T02:54:39.225Z,58.17
2022-08-17T02:59:19.155Z,59.47
2022-08-17T03:04:22.497Z,66.05
2022-08-17T03:09:25.375Z,60.04
2022-08-17T03:14:28.457Z,55.22
2022-08-17T03:19:31.359Z,56.54
2022-08-17T03:24:34.960Z,58.47
2022-08-17T03:29:39.897Z,60.16
2022-08-17T03:34:43.329Z,66.81
2022-08-17T03:39:46.228Z,60.63
2022-08-17T03:44:50.872Z,55.33
2022-08-17T03:50:12.690Z,56.38
2022-08-17T03:55:36.541Z,57.64
2022-08-17T04:00:45.542Z,59.91
2022-08-17T04:05:48.430Z,66.88
2022-08-17T04:10:51.297Z,61.17
2022-08-17T04:15:55.633Z,55.29
2022-08-17T04:20:58.851Z,55.82
2022-08-17T04:26:01.755Z,58.02
2022-08-17T04:31:04.846Z,60.09
2022-08-17T04:36:11.723Z,67.31
2022-08-17T04:41:33.995Z,61.69
2022-08-17T04:46:37.261Z,55.55
2022-08-17T04:51:51.613Z,56.53
2022-08-17T04:56:59.190Z,58.20
2022-08-17T05:02:02.196Z,60.26
2022-08-17T05:07:05.084Z,66.79
2022-08-17T05:12:08.168Z,60.82
2022-08-17T05:17:11.312Z,55.03
2022-08-17T05:22:14.844Z,56.62
2022-08-17T05:27:19.057Z,58.48
2022-08-17T05:32:38.184Z,60.43
2022-08-17T05:37:42.552Z,65.87
2022-08-17T05:42:45.388Z,58.34
2022-08-17T05:47:48.318Z,56.26
2022-08-17T05:53:10.538Z,58.59
2022-08-17T05:58:42.255Z,60.71
2022-08-17T06:04:03.274Z,65.03
2022-08-17T06:09:34.199Z,57.16
2022-08-17T06:15:01.517Z,57.59
2022-08-17T06:20:12.354Z,59.30
2022-08-17T06:25:33.592Z,60.76
2022-08-17T06:31:01.548Z,66.30
2022-08-17T06:36:40.604Z,57.53
2022-08-17T06:42:59.902Z,57.88
2022-08-17T06:47:55.993Z,59.63
2022-08-17T06:53:28.370Z,65.01
2022-08-17T06:58:33.439Z,57.20
2022-08-17T07:03:41.666Z,57.19
2022-08-17T07:08:57.678Z,57.83
2022-08-17T07:14:00.443Z,59.74
2022-08-17T07:19:06.154Z,65.67
2022-08-17T07:24:29.960Z,58.11
2022-08-17T07:29:40.018Z,57.08
2022-08-17T07:35:11.118Z,58.45
2022-08-17T07:40:18.135Z,59.87
2022-08-17T07:45:39.635Z,65.42
2022-08-17T07:50:42.602Z,56.94
2022-08-17T07:55:54.025Z,56.62
2022-08-17T08:01:11.288Z,57.89
2022-08-17T08:06:24.851Z,58.91
2022-08-17T08:11:39.262Z,59.92
2022-08-17T08:16:59.136Z,65.05
2022-08-17T08:22:10.325Z,56.11
2022-08-17T08:27:40.232Z,56.05
2022-08-17T08:33:11.083Z,56.91
2022-08-17T08:38:36.469Z,58.63
2022-08-17T08:44:06.153Z,59.10
2022-08-17T08:49:45.126Z,59.56
2022-08-17T08:55:16.977Z,59.84
2022-08-17T09:00:24.145Z,59.83
2022-08-17T09:05:48.760Z,60.46
2022-08-17T09:10:57.625Z,60.88
2022-08-17T09:16:09.670Z,60.66
2022-08-17T09:21:28.791Z,60.89
2022-08-17T09:27:03.659Z,60.31
2022-08-17T09:32:17.796Z,60.11
2022-08-17T09:37:32.601Z,59.58
2022-08-17T09:42:47.600Z,58.99
2022-08-17T09:47:58.176Z,58.27
2022-08-17T09:53:01.833Z,58.29
2022-08-17T09:58:23.565Z,57.17
2022-08-17T10:03:49.133Z,57.09
2022-08-17T10:08:52.157Z,57.04
2022-08-17T10:14:36.373Z,56.28
2022-08-17T10:19:54.044Z,56.38
2022-08-17T10:25:23.627Z,56.29
2022-08-17T10:30:33.324Z,55.41
2022-08-17T10:35:52.559Z,55.84
2022-08-17T10:40:59.971Z,55.59
2022-08-17T10:46:30.466Z,55.52
2022-08-17T10:51:42.127Z,54.35
2022-08-17T10:56:50.484Z,54.47
2022-08-17T11:02:04.694Z,53.18
2022-08-17T11:07:19.292Z,53.13
2022-08-17T11:12:48.951Z,53.21
2022-08-17T11:18:06.786Z,53.23
2022-08-17T11:23:50.460Z,53.66
2022-08-17T11:28:59.668Z,54.07
2022-08-17T11:34:18.597Z,54.25
2022-08-17T11:39:37.676Z,52.81
2022-08-17T11:44:52.563Z,51.91
2022-08-17T11:50:38.756Z,51.68
2022-08-17T11:55:44.832Z,50.03
2022-08-17T12:00:52.031Z,49.94
2022-08-17T12:06:30.215Z,48.51
2022-08-17T12:12:11.041Z,48.71
2022-08-17T12:17:20.894Z,48.12
2022-08-17T12:23:01.306Z,47.39
2022-08-17T12:28:20.170Z,47.10
2022-08-17T12:33:28.408Z,46.56
2022-08-17T12:38:34.901Z,46.21
2022-08-17T12:43:38.086Z,46.16
2022-08-17T12:48:59.924Z,45.82
2022-08-17T12:54:03.420Z,46.25
2022-08-17T12:59:07.249Z,46.32
2022-08-17T13:04:15.763Z,46.17
2022-08-17T13:09:35.908Z,46.74
2022-08-17T13:14:46.552Z,46.17
2022-08-17T13:19:51.216Z,45.70
2022-08-17T13:24:58.156Z,45.57
2022-08-17T13:30:12.458Z,45.90
2022-08-17T13:35:38.954Z,46.43
2022-08-17T13:40:50.297Z,46.03
2022-08-17T13:45:53.488Z,46.19
2022-08-17T13:50:56.340Z,46.40
2022-08-17T13:56:33.479Z,45.66
2022-08-17T14:01:53.197Z,45.93
2022-08-17T14:07:19.918Z,46.52
2022-08-17T14:12:25.177Z,46.00
2022-08-17T14:17:29.597Z,46.07
2022-08-17T14:22:35.706Z,46.27
2022-08-17T14:27:41.864Z,46.53
2022-08-17T14:32:58.253Z,46.37
2022-08-17T14:38:06.012Z,46.37
2022-08-17T14:43:08.964Z,46.52
2022-08-17T14:48:12.021Z,46.98
2022-08-17T14:53:16.554Z,46.35
2022-08-17T14:58:20.046Z,46.27
2022-08-17T15:03:23.596Z,46.52
2022-08-17T15:08:26.462Z,47.05
2022-08-17T15:13:29.942Z,47.72
2022-08-17T15:18:33.060Z,47.89
2022-08-17T15:23:36.395Z,47.97
2022-08-17T15:28:39.295Z,48.01
2022-08-17T15:33:42.218Z,48.02
2022-08-17T15:38:46.132Z,47.81
2022-08-17T15:43:52.660Z,48.11
2022-08-17T15:49:00.113Z,48.62
2022-08-17T15:54:18.671Z,50.59
2022-08-17T15:59:25.590Z,51.06
2022-08-17T16:04:30.952Z,52.17
2022-08-17T16:09:34.822Z,52.88
2022-08-17T16:14:37.715Z,53.39
2022-08-17T16:19:41.444Z,53.92
2022-08-17T16:24:56.868Z,54.44
2022-08-17T16:30:01.204Z,54.79
2022-08-17T16:35:08.277Z,55.16
2022-08-17T16:40:11.834Z,55.35
2022-08-17T16:45:23.995Z,55.75
2022-08-17T16:50:27.079Z,56.06
2022-08-17T16:55:30.229Z,56.20
2022-08-17T17:00:33.847Z,56.40
2022-08-17T17:06:07.426Z,56.67
2022-08-17T17:11:15.616Z,56.50
2022-08-17T17:16:47.117Z,56.71
2022-08-17T17:22:03.899Z,56.80
2022-08-17T17:27:37.161Z,56.68
2022-08-17T17:33:03.608Z,56.74
2022-08-17T17:38:12.785Z,56.95
2022-08-17T17:43:38.198Z,57.21
2022-08-17T17:48:42.204Z,57.37
2022-08-17T17:54:24.198Z,57.91
2022-08-17T17:59:34.892Z,58.14
2022-08-17T18:04:48.964Z,58.47
2022-08-17T18:10:04.245Z,58.68
2022-08-17T18:15:35.689Z,58.89
2022-08-17T18:20:46.513Z,59.19
2022-08-17T18:25:58.835Z,59.70
2022-08-17T18:31:07.727Z,59.99
2022-08-17T18:36:11.703Z,60.01
2022-08-17T18:41:30.583Z,60.41
2022-08-17T18:46:37.835Z,61.02
2022-08-17T18:51:43.261Z,61.69
2022-08-17T18:56:55.374Z,62.12
2022-08-17T19:02:07.585Z,62.20
2022-08-17T19:07:16.852Z,67.73
2022-08-17T19:12:39.486Z,58.56
2022-08-17T19:17:55.525Z,57.36
2022-08-17T19:23:22.904Z,58.46
2022-08-17T19:28:36.933Z,58.96
2022-08-17T19:33:40.067Z,59.76
2022-08-17T19:38:51.578Z,60.61
2022-08-17T19:44:14.814Z,61.42
2022-08-17T19:49:46.763Z,66.61
2022-08-17T19:55:01.109Z,58.68
2022-08-17T20:00:13.761Z,57.81
2022-08-17T20:06:00.880Z,59.01
2022-08-17T20:11:02.976Z,59.95
2022-08-17T20:16:07.235Z,60.93
2022-08-17T20:21:37.315Z,66.47
2022-08-17T20:26:58.737Z,58.69
2022-08-17T20:32:02.481Z,58.06
2022-08-17T20:37:14.466Z,59.38
2022-08-17T20:42:19.946Z,60.33
2022-08-17T20:47:30.857Z,61.26
2022-08-17T20:52:53.366Z,66.81
2022-08-17T20:57:56.833Z,58.71
2022-08-17T21:03:23.823Z,58.21
2022-08-17T21:08:29.743Z,59.47
2022-08-17T21:13:49.215Z,60.46
2022-08-17T21:19:08.716Z,61.29
2022-08-17T21:24:20.516Z,67.07
2022-08-17T21:29:31.105Z,58.48
2022-08-17T21:34:44.349Z,57.78
2022-08-17T21:39:51.913Z,59.06
2022-08-17T21:45:00.655Z,60.28
2022-08-17T21:50:24.500Z,61.37
2022-08-17T21:55:30.929Z,67.46
2022-08-17T22:00:34.044Z,60.31
2022-08-17T22:05:39.601Z,55.17
2022-08-17T22:10:45.445Z,56.57
2022-08-17T22:16:27.855Z,57.94
2022-08-17T22:21:32.099Z,59.04
2022-08-17T22:27:00.328Z,60.57
2022-08-17T22:32:03.730Z,66.64
2022-08-17T22:37:27.959Z,58.34
2022-08-17T22:42:31.366Z,57.89
2022-08-17T22:47:39.597Z,59.32
2022-08-17T22:53:13.531Z,60.84
2022-08-17T22:58:39.018Z,66.78
2022-08-17T23:03:55.681Z,58.16
2022-08-17T23:08:58.874Z,58.04
2022-08-17T23:14:02.444Z,60.00
2022-08-17T23:19:05.392Z,60.93
2022-08-17T23:24:09.096Z,66.36
2022-08-17T23:29:12.122Z,60.22
2022-08-17T23:34:18.425Z,54.96
2022-08-17T23:39:27.749Z,56.57
2022-08-17T23:44:31.415Z,58.37
2022-08-17T23:49:36.366Z,59.98
2022-08-17T23:54:44.273Z,66.15
2022-08-17T23:59:47.378Z,59.28
